Time;durP1;ratioP1;P1;durP2;ratioP2;P2;SDS_P1;SDS_P2;PMS_P1;PMS_P2;Temp;Humidity;BMP_temperature;BMP_pressure;BME280_temperature;BME280_humidity;BME280_pressure;Samples;Min_cycle;Max_cycle;Signal;HPM_P1;HPM_P2
2020/12/24 00:02:22;;;;;;;0.80;0.80;;;11.20;77.90;;;;;;5129622;27;20023;-43
2020/12/24 00:04:48;;;;;;;0.82;0.77;;;11.30;78.00;;;;;;5145303;27;20023;-44
2020/12/24 00:07:15;;;;;;;0.88;0.70;;;11.30;77.90;;;;;;5131569;27;20189;-44
2020/12/24 00:09:41;;;;;;;1.00;0.90;;;11.20;77.80;;;;;;5124763;28;20028;-43
2020/12/24 00:12:07;;;;;;;1.30;1.10;;;11.30;78.00;;;;;;5124357;28;20032;-44
2020/12/24 00:14:33;;;;;;;1.10;1.00;;;11.30;77.90;;;;;;5124713;28;20069;-43
2020/12/24 00:16:59;;;;;;;1.15;0.90;;;11.30;78.00;;;;;;5124702;28;20459;-43
2020/12/24 00:19:25;;;;;;;1.30;0.80;;;11.30;77.90;;;;;;5131041;27;20027;-44
2020/12/24 00:21:52;;;;;;;1.80;1.00;;;11.20;77.80;;;;;;5144996;27;20035;-44
2020/12/24 00:24:18;;;;;;;0.90;0.80;;;11.30;77.90;;;;;;5144990;27;20100;-46
2020/12/24 00:26:44;;;;;;;1.02;0.77;;;11.30;77.90;;;;;;5145164;27;20725;-45
2020/12/24 00:29:10;;;;;;;1.52;1.00;;;11.30;77.90;;;;;;5144807;27;20028;-43
2020/12/24 00:31:39;;;;;;;1.02;0.80;;;11.20;77.80;;;;;;5144736;27;20054;-44
2020/12/24 00:34:06;;;;;;;1.20;1.02;;;11.30;77.90;;;;;;5125367;27;20032;-44
2020/12/24 00:36:32;;;;;;;1.15;0.80;;;11.30;77.90;;;;;;5116613;28;20136;-43
2020/12/24 00:38:58;;;;;;;1.25;0.90;;;11.30;77.90;;;;;;5103679;28;20027;-44
2020/12/24 00:41:24;;;;;;;1.20;0.80;;;11.30;77.90;;;;;;5113590;28;20034;-45
2020/12/24 00:43:51;;;;;;;0.70;0.70;;;11.30;77.90;;;;;;5124068;28;20015;-43
2020/12/24 00:46:17;;;;;;;1.40;0.93;;;11.30;77.90;;;;;;5123642;28;20027;-44
2020/12/24 00:48:43;;;;;;;1.30;1.00;;;11.30;77.90;;;;;;5127832;27;20026;-45
2020/12/24 00:51:09;;;;;;;1.40;1.00;;;11.30;77.90;;;;;;5144611;27;20034;-44
2020/12/24 00:53:36;;;;;;;1.20;0.98;;;11.30;77.90;;;;;;5144476;27;20058;-43
2020/12/24 00:56:02;;;;;;;1.30;1.00;;;11.30;77.90;;;;;;5144605;27;20090;-44
2020/12/24 00:58:28;;;;;;;1.38;0.90;;;11.30;77.90;;;;;;5144481;27;20018;-43
2020/12/24 01:00:54;;;;;;;1.10;0.77;;;11.30;77.90;;;;;;5144349;27;20045;-44
2020/12/24 01:03:20;;;;;;;1.67;1.00;;;11.30;77.90;;;;;;5130753;27;20045;-43
2020/12/24 01:05:47;;;;;;;1.20;0.95;;;11.30;77.90;;;;;;5123961;28;20024;-44
2020/12/24 01:08:13;;;;;;;1.27;1.02;;;11.30;77.90;;;;;;5123627;28;20105;-44
2020/12/24 01:10:39;;;;;;;1.08;0.98;;;11.30;77.90;;;;;;5123824;28;20092;-44
2020/12/24 01:13:05;;;;;;;1.30;0.95;;;11.30;77.90;;;;;;5123431;28;20103;-44
2020/12/24 01:15:31;;;;;;;1.33;1.05;;;11.30;77.90;;;;;;5123462;28;20036;-43
2020/12/24 01:17:57;;;;;;;1.10;0.80;;;11.30;77.90;;;;;;5123512;28;20028;-43
2020/12/24 01:20:23;;;;;;;1.38;0.85;;;11.30;78.00;;;;;;5138281;27;20051;-43
2020/12/24 01:22:51;;;;;;;1.00;0.90;;;11.30;78.00;;;;;;5143732;27;20081;-44
2020/12/24 01:25:17;;;;;;;1.33;0.90;;;11.30;78.00;;;;;;5144295;27;20027;-44
2020/12/24 01:27:43;;;;;;;1.10;1.00;;;11.30;78.00;;;;;;5135853;28;20046;-44
2020/12/24 01:30:09;;;;;;;0.95;0.77;;;11.30;78.00;;;;;;5123573;28;20112;-44
2020/12/24 01:32:36;;;;;;;1.33;0.90;;;11.30;78.00;;;;;;5123305;28;20028;-44
2020/12/24 01:35:02;;;;;;;1.38;1.02;;;11.30;78.00;;;;;;5123361;28;20031;-44
2020/12/24 01:37:28;;;;;;;1.50;1.10;;;11.30;78.10;;;;;;5107847;28;20095;-44
2020/12/24 01:39:54;;;;;;;2.10;1.40;;;11.30;78.10;;;;;;5103081;28;20032;-43
2020/12/24 01:42:21;;;;;;;1.30;1.00;;;11.30;78.10;;;;;;5102622;28;20030;-44
2020/12/24 01:44:47;;;;;;;1.02;0.93;;;11.30;78.10;;;;;;5102912;28;20020;-44
2020/12/24 01:47:16;;;;;;;1.20;0.90;;;11.30;78.10;;;;;;5103027;28;20043;-44
2020/12/24 01:49:43;;;;;;;1.20;0.82;;;11.30;78.10;;;;;;5120892;28;20020;-43
2020/12/24 01:52:21;;;;;;;1.42;1.02;;;11.30;78.10;;;;;;5123309;28;20682;-44
2020/12/24 01:54:47;;;;;;;1.15;0.80;;;11.30;78.10;;;;;;5122642;28;20578;-44
2020/12/24 01:57:13;;;;;;;1.60;1.10;;;11.30;78.10;;;;;;5108180;28;20020;-46
2020/12/24 01:59:40;;;;;;;1.50;1.13;;;11.30;78.10;;;;;;5112088;27;20035;-44
2020/12/24 02:02:06;;;;;;;1.20;1.05;;;11.30;78.20;;;;;;5126947;27;20027;-43
2020/12/24 02:04:32;;;;;;;1.00;0.90;;;11.30;78.30;;;;;;5127032;28;20077;-43
2020/12/24 02:06:58;;;;;;;1.20;0.90;;;11.30;78.90;;;;;;5126969;28;20035;-44
2020/12/24 02:09:24;;;;;;;2.20;1.00;;;11.30;78.10;;;;;;5127166;28;20082;-43
2020/12/24 02:11:50;;;;;;;1.63;1.05;;;11.30;78.10;;;;;;5127045;28;20028;-44
2020/12/24 02:14:16;;;;;;;0.98;0.73;;;11.30;78.20;;;;;;5126824;28;20053;-43
2020/12/24 02:16:42;;;;;;;1.45;1.10;;;11.30;78.10;;;;;;5126839;28;20035;-43
2020/12/24 02:19:09;;;;;;;1.02;0.77;;;11.30;78.10;;;;;;5131158;27;20018;-43
2020/12/24 02:21:35;;;;;;;1.67;1.00;;;11.30;78.10;;;;;;5147197;27;20051;-44
2020/12/24 02:24:02;;;;;;;1.00;0.90;;;11.30;78.10;;;;;;5147324;27;20023;-44
2020/12/24 02:26:31;;;;;;;1.52;1.10;;;11.30;78.20;;;;;;5147467;27;20086;-44
2020/12/24 02:28:57;;;;;;;1.77;1.10;;;11.30;78.20;;;;;;5147398;27;20047;-44
2020/12/24 02:31:24;;;;;;;1.08;0.98;;;11.30;78.40;;;;;;5128783;27;20031;-44
2020/12/24 02:33:50;;;;;;;1.23;1.00;;;11.30;78.30;;;;;;5129244;27;20472;-44
2020/12/24 02:36:16;;;;;;;1.10;1.00;;;11.30;78.30;;;;;;5121302;28;20043;-44
2020/12/24 02:38:42;;;;;;;1.17;0.93;;;11.30;78.30;;;;;;5106071;28;20035;-47
2020/12/24 02:41:09;;;;;;;0.90;0.80;;;11.30;78.50;;;;;;5120258;28;20019;-43
2020/12/24 02:43:35;;;;;;;1.92;0.90;;;11.30;78.50;;;;;;5126101;28;20031;-43
2020/12/24 02:46:01;;;;;;;1.67;1.08;;;11.30;78.50;;;;;;5126817;27;20034;-43
2020/12/24 02:48:27;;;;;;;1.10;0.88;;;11.30;78.50;;;;;;5145022;27;20031;-44
2020/12/24 02:50:53;;;;;;;1.17;1.02;;;11.30;78.50;;;;;;5127911;27;20027;-44
2020/12/24 02:53:20;;;;;;;1.23;1.00;;;11.30;78.50;;;;;;5125712;28;20033;-43
2020/12/24 02:55:46;;;;;;;1.05;0.93;;;11.30;78.50;;;;;;5126349;28;20031;-44
2020/12/24 02:58:12;;;;;;;1.23;1.00;;;11.30;78.60;;;;;;5126133;28;20797;-44
2020/12/24 03:00:38;;;;;;;1.13;1.02;;;11.30;78.60;;;;;;5125886;28;20028;-43
2020/12/24 03:03:04;;;;;;;2.45;0.93;;;11.30;78.70;;;;;;5137001;27;20080;-43
2020/12/24 03:05:30;;;;;;;1.08;0.98;;;11.30;78.80;;;;;;5146747;27;20033;-43
2020/12/24 03:07:56;;;;;;;1.27;0.88;;;11.30;78.70;;;;;;5126731;27;20045;-44
2020/12/24 03:10:23;;;;;;;1.33;1.10;;;11.30;78.70;;;;;;5125148;28;20491;-43
2020/12/24 03:12:49;;;;;;;1.20;0.90;;;11.20;78.70;;;;;;5125529;28;20035;-44
2020/12/24 03:15:15;;;;;;;1.50;1.15;;;11.30;78.70;;;;;;5125388;28;20044;-46
2020/12/24 03:17:41;;;;;;;1.40;1.00;;;11.20;78.70;;;;;;5125968;28;20028;-43
2020/12/24 03:20:08;;;;;;;1.25;1.10;;;11.30;78.80;;;;;;5138107;27;20061;-43
2020/12/24 03:22:35;;;;;;;1.03;0.93;;;11.30;78.80;;;;;;5146216;27;20116;-44
2020/12/24 03:25:01;;;;;;;1.90;1.00;;;11.20;78.80;;;;;;5127502;27;20031;-44
2020/12/24 03:27:28;;;;;;;0.80;0.70;;;11.30;78.70;;;;;;5146226;27;20038;-43
2020/12/24 03:29:55;;;;;;;1.30;0.90;;;11.20;78.80;;;;;;5145164;27;20031;-44
2020/12/24 03:32:21;;;;;;;1.38;1.15;;;11.30;79.00;;;;;;5127690;27;20047;-43
2020/12/24 03:34:47;;;;;;;1.30;1.02;;;11.20;78.90;;;;;;5125259;28;20104;-44
2020/12/24 03:37:13;;;;;;;1.35;1.00;;;11.30;79.10;;;;;;5111830;28;20046;-43
2020/12/24 03:39:40;;;;;;;2.88;0.93;;;11.30;79.00;;;;;;5105155;28;20436;-43
2020/12/24 03:42:06;;;;;;;1.70;1.27;;;11.30;79.10;;;;;;5105962;28;20016;-43
2020/12/24 03:44:32;;;;;;;1.17;1.00;;;11.30;78.80;;;;;;5124727;28;20131;-44
2020/12/24 03:46:58;;;;;;;1.40;1.10;;;11.30;78.80;;;;;;5125155;28;20017;-43
2020/12/24 03:49:24;;;;;;;2.50;0.90;;;11.30;78.80;;;;;;5131601;27;20031;-44
2020/12/24 03:51:50;;;;;;;1.65;1.20;;;11.30;78.70;;;;;;5145605;27;20023;-45
2020/12/24 03:54:16;;;;;;;1.20;1.10;;;11.20;78.80;;;;;;5145513;27;20035;-43
2020/12/24 03:56:43;;;;;;;1.80;1.10;;;11.30;78.80;;;;;;5145569;27;20027;-43
2020/12/24 03:59:09;;;;;;;1.63;1.13;;;11.30;78.90;;;;;;5145477;27;20165;-43
2020/12/24 04:01:35;;;;;;;1.58;1.02;;;11.20;78.70;;;;;;5145403;27;20023;-43
2020/12/24 04:04:01;;;;;;;1.50;1.30;;;11.30;78.80;;;;;;5141841;27;20035;-43
2020/12/24 04:06:27;;;;;;;1.38;1.20;;;11.30;78.80;;;;;;5138617;27;20139;-43
2020/12/24 04:08:53;;;;;;;1.52;1.20;;;11.30;78.90;;;;;;5124787;28;20024;-43
2020/12/24 04:11:19;;;;;;;1.30;1.02;;;11.30;78.70;;;;;;5124758;28;20127;-43
2020/12/24 04:13:46;;;;;;;1.52;1.10;;;11.20;78.80;;;;;;5123952;28;20035;-43
2020/12/24 04:16:12;;;;;;;1.77;1.10;;;11.30;78.90;;;;;;5124435;28;20682;-44
2020/12/24 04:18:38;;;;;;;1.55;1.08;;;11.30;78.80;;;;;;5106374;28;20083;-43
2020/12/24 04:21:04;;;;;;;1.15;0.98;;;11.30;78.80;;;;;;5088354;28;20056;-43
2020/12/24 04:23:31;;;;;;;1.40;1.20;;;11.20;78.90;;;;;;5083720;28;20040;-44
2020/12/24 04:25:57;;;;;;;1.65;1.08;;;11.30;78.80;;;;;;5083567;28;20024;-43
2020/12/24 04:28:23;;;;;;;1.05;0.90;;;11.20;79.00;;;;;;5083461;28;20062;-43
2020/12/24 04:30:49;;;;;;;1.90;1.00;;;11.30;79.00;;;;;;5083771;28;20013;-43
2020/12/24 04:33:15;;;;;;;1.83;1.25;;;11.30;78.90;;;;;;5096105;28;20028;-43
2020/12/24 04:35:41;;;;;;;1.63;1.05;;;11.20;78.80;;;;;;5103185;28;20040;-44
2020/12/24 04:38:09;;;;;;;1.30;1.13;;;11.30;78.70;;;;;;5084366;28;20496;-43
2020/12/24 04:40:35;;;;;;;1.70;1.10;;;11.30;78.80;;;;;;5103679;28;20058;-45
2020/12/24 04:43:03;;;;;;;1.45;1.00;;;11.30;78.80;;;;;;5103620;28;20024;-44
2020/12/24 04:45:30;;;;;;;1.48;1.20;;;11.30;78.90;;;;;;5103327;28;20024;-44
2020/12/24 04:47:57;;;;;;;1.50;1.13;;;11.30;78.80;;;;;;5103696;28;20031;-43
2020/12/24 04:50:28;;;;;;;1.77;1.17;;;11.30;78.70;;;;;;5103377;28;20024;-44
2020/12/24 04:52:55;;;;;;;1.20;0.93;;;11.30;78.60;;;;;;5103596;28;20031;-44
2020/12/24 04:55:21;;;;;;;2.33;1.17;;;11.30;78.60;;;;;;5103074;28;20043;-44
2020/12/24 04:57:49;;;;;;;1.58;1.10;;;11.30;78.50;;;;;;5103565;28;20024;-43
2020/12/24 05:00:18;;;;;;;1.83;1.45;;;11.30;78.50;;;;;;5085410;28;20028;-43
2020/12/24 05:02:45;;;;;;;1.27;1.10;;;11.30;78.40;;;;;;5103573;28;20031;-43
2020/12/24 05:05:11;;;;;;;1.02;0.90;;;11.30;78.40;;;;;;5103283;28;20020;-43
2020/12/24 05:07:43;;;;;;;1.33;1.05;;;11.30;78.30;;;;;;5102863;28;20036;-45
2020/12/24 05:10:15;;;;;;;1.83;1.25;;;11.30;78.30;;;;;;5085388;28;20081;-43
2020/12/24 05:12:42;;;;;;;1.45;0.90;;;11.30;78.40;;;;;;5103226;28;20020;-44
2020/12/24 05:15:09;;;;;;;1.60;1.10;;;11.20;78.30;;;;;;5102798;28;20040;-43
2020/12/24 05:17:35;;;;;;;1.00;0.90;;;11.20;78.40;;;;;;5085083;28;20072;-43
2020/12/24 05:20:05;;;;;;;1.95;0.93;;;11.20;78.30;;;;;;5109985;28;20051;-43
2020/12/24 05:22:31;;;;;;;1.00;0.90;;;11.30;78.60;;;;;;5105153;28;20023;-44
2020/12/24 05:25:10;;;;;;;1.00;0.80;;;11.20;79.20;;;;;;5123351;28;20039;-43
2020/12/24 05:27:37;;;;;;;1.25;1.02;;;11.30;79.30;;;;;;5123620;28;20026;-43
2020/12/24 05:30:03;;;;;;;1.13;1.00;;;11.20;79.20;;;;;;5105352;28;20020;-42
2020/12/24 05:32:30;;;;;;;1.27;1.10;;;11.30;79.00;;;;;;5123260;28;20035;-43
2020/12/24 05:35:07;;;;;;;1.90;1.27;;;11.20;78.80;;;;;;5131849;27;20059;-43
2020/12/24 05:37:33;;;;;;;1.48;1.20;;;11.30;78.80;;;;;;5132029;27;20047;-43
2020/12/24 05:40:16;;;;;;;1.75;1.10;;;11.20;78.50;;;;;;5127670;28;20035;-42
2020/12/24 05:42:56;;;;;;;1.23;1.00;;;11.20;78.40;;;;;;5111693;28;20043;-43
2020/12/24 05:45:29;;;;;;;1.38;1.10;;;11.20;78.40;;;;;;5127188;28;20019;-43
2020/12/24 05:48:14;;;;;;;1.40;1.02;;;11.20;79.10;;;;;;5127646;28;20028;-43
2020/12/24 05:50:42;;;;;;;1.60;1.13;;;11.20;78.40;;;;;;5144766;27;20072;-44
2020/12/24 05:53:11;;;;;;;;;;;11.20;78.30;;;;;;5146222;27;20027;-43
2020/12/24 05:55:39;;;;;;;1.50;1.02;;;11.20;78.30;;;;;;5138679;27;19915;-43
2020/12/24 05:58:07;;;;;;;1.65;1.23;;;11.20;78.30;;;;;;5127171;28;20027;-44
2020/12/24 06:00:39;;;;;;;1.75;1.10;;;11.20;78.20;;;;;;5127413;28;20492;-43
2020/12/24 06:03:09;;;;;;;1.35;1.25;;;11.20;78.20;;;;;;5138377;27;20034;-43
2020/12/24 06:06:00;;;;;;;1.40;1.30;;;11.20;78.30;;;;;;5147609;27;20484;-43
2020/12/24 06:08:30;;;;;;;1.40;1.25;;;11.20;78.40;;;;;;5106664;28;20052;-43
2020/12/24 06:11:07;;;;;;;1.17;1.05;;;11.20;78.30;;;;;;5088558;28;20684;-43
2020/12/24 06:13:44;;;;;;;1.77;1.20;;;11.20;78.20;;;;;;5106417;28;20122;-43
2020/12/24 06:16:14;;;;;;;1.67;1.20;;;11.20;78.30;;;;;;5106176;28;20032;-43
2020/12/24 06:18:46;;;;;;;1.35;1.05;;;11.20;78.00;;;;;;5106760;28;20027;-42
2020/12/24 06:21:17;;;;;;;1.65;1.10;;;11.20;78.00;;;;;;5147459;27;20043;-43
2020/12/24 06:23:54;;;;;;;2.13;1.13;;;11.20;78.00;;;;;;5111929;27;20027;-43
2020/12/24 06:26:24;;;;;;;1.08;0.98;;;11.20;78.10;;;;;;5147368;27;20472;-43
2020/12/24 06:28:52;;;;;;;1.45;1.10;;;11.20;78.10;;;;;;5112424;27;20673;-44
2020/12/24 06:31:19;;;;;;;1.70;1.08;;;11.20;78.00;;;;;;5147335;27;20061;-42
2020/12/24 06:33:45;;;;;;;2.95;1.38;;;11.20;78.10;;;;;;5112026;28;20063;-43
2020/12/24 06:36:32;;;;;;;1.70;1.20;;;11.20;77.70;;;;;;5121649;28;20058;-43
2020/12/24 06:38:58;;;;;;;1.58;1.30;;;11.20;78.10;;;;;;5106149;28;20024;-44
2020/12/24 06:41:28;;;;;;;1.40;1.30;;;11.20;78.20;;;;;;5098474;28;20058;-43
2020/12/24 06:43:55;;;;;;;1.38;1.15;;;11.20;78.20;;;;;;5119570;28;20062;-43
2020/12/24 06:46:21;;;;;;;1.20;1.10;;;11.20;78.10;;;;;;5107026;28;20399;-43
2020/12/24 06:49:04;;;;;;;1.48;1.23;;;11.20;78.10;;;;;;5127343;27;20043;-42
2020/12/24 06:51:49;;;;;;;1.20;1.10;;;11.20;77.80;;;;;;5147077;27;20030;-43
2020/12/24 06:54:20;;;;;;;1.20;1.10;;;11.20;77.70;;;;;;5146907;27;20026;-43
2020/12/24 06:56:46;;;;;;;1.20;1.00;;;11.20;78.00;;;;;;5146755;27;20031;-42
2020/12/24 06:59:18;;;;;;;1.30;1.02;;;11.20;78.30;;;;;;5128314;27;20470;-43
2020/12/24 07:02:02;;;;;;;1.20;1.08;;;11.20;78.30;;;;;;5146899;27;20026;-43
2020/12/24 07:04:41;;;;;;;1.52;1.10;;;11.20;78.40;;;;;;5090007;28;20124;-44
2020/12/24 07:07:08;;;;;;;1.42;1.00;;;11.20;78.40;;;;;;5117758;28;20030;-43
2020/12/24 07:09:34;;;;;;;1.70;1.30;;;11.20;78.50;;;;;;5126051;28;20016;-43
2020/12/24 07:12:00;;;;;;;2.15;1.60;;;11.20;78.60;;;;;;5126098;28;20551;-46
2020/12/24 07:14:27;;;;;;;1.20;1.08;;;11.20;78.70;;;;;;5107749;28;20031;-43
2020/12/24 07:16:54;;;;;;;1.45;1.20;;;11.20;78.70;;;;;;5125689;28;20051;-43
2020/12/24 07:19:20;;;;;;;1.50;1.17;;;11.20;78.70;;;;;;5131618;27;20015;-44
2020/12/24 07:21:51;;;;;;;1.30;1.20;;;11.20;78.50;;;;;;5128061;27;20091;-43
2020/12/24 07:24:30;;;;;;;1.35;1.20;;;11.20;78.50;;;;;;5146343;27;20031;-44
2020/12/24 07:27:00;;;;;;;1.95;1.05;;;11.20;78.60;;;;;;5146071;27;20667;-44
2020/12/24 07:29:28;;;;;;;1.92;1.08;;;11.20;79.00;;;;;;5146281;27;20026;-45
2020/12/24 07:31:54;;;;;;;;;;;11.20;78.60;;;;;;5145671;27;20037;-44
2020/12/24 07:34:27;;;;;;;1.10;1.00;;;11.20;78.30;;;;;;5125591;28;19911;-46
2020/12/24 07:36:53;;;;;;;1.40;1.25;;;11.20;78.30;;;;;;5123662;27;20035;-44
2020/12/24 07:39:20;;;;;;;1.40;1.20;;;11.20;78.30;;;;;;5125536;28;20104;-46
2020/12/24 07:41:46;;;;;;;2.13;1.10;;;11.20;78.30;;;;;;5125271;28;20023;-45
2020/12/24 07:44:14;;;;;;;1.45;1.23;;;11.20;78.40;;;;;;5125827;27;20364;-43
2020/12/24 07:46:40;;;;;;;2.03;1.35;;;11.20;78.40;;;;;;5127091;27;20377;-44
2020/12/24 07:49:06;;;;;;;1.48;1.15;;;11.20;78.60;;;;;;5128943;27;20027;-43
2020/12/24 07:51:33;;;;;;;1.58;1.40;;;11.20;78.50;;;;;;5127556;27;20023;-44
2020/12/24 07:54:11;;;;;;;1.27;1.13;;;11.20;78.40;;;;;;5145756;27;20054;-43
2020/12/24 07:56:42;;;;;;;1.25;1.10;;;11.20;78.40;;;;;;5145421;27;20027;-44
2020/12/24 07:59:08;;;;;;;1.35;1.17;;;11.20;78.50;;;;;;5127458;27;20027;-44
2020/12/24 08:01:34;;;;;;;1.90;1.50;;;11.20;78.40;;;;;;5127179;27;20083;-44
2020/12/24 08:04:02;;;;;;;1.40;1.13;;;11.20;78.40;;;;;;5104672;28;20546;-43
2020/12/24 08:06:28;;;;;;;;;;;11.20;78.40;;;;;;5112001;28;20038;-43
2020/12/24 08:09:07;;;;;;;1.10;0.90;;;11.20;78.40;;;;;;5140494;27;19979;-43
2020/12/24 08:11:34;;;;;;;1.13;1.02;;;11.20;78.50;;;;;;5108755;28;20061;-44
2020/12/24 08:14:00;;;;;;;1.40;1.30;;;11.20;78.60;;;;;;5124572;28;20031;-43
2020/12/24 08:16:27;;;;;;;1.70;1.23;;;11.20;78.40;;;;;;5124760;28;20256;-44
2020/12/24 08:18:56;;;;;;;3.03;1.30;;;11.20;79.20;;;;;;5108188;27;20027;-43
2020/12/24 08:21:24;;;;;;;1.98;1.40;;;11.20;78.40;;;;;;5110086;27;20741;-43
2020/12/24 08:23:54;;;;;;;1.45;1.10;;;11.20;78.40;;;;;;5109743;27;20015;-43
2020/12/24 08:26:20;;;;;;;1.27;1.15;;;11.20;78.40;;;;;;5110043;27;20062;-45
2020/12/24 08:28:55;;;;;;;1.10;1.00;;;11.20;78.40;;;;;;5144852;27;20012;-44
2020/12/24 08:31:25;;;;;;;2.38;1.15;;;11.20;78.50;;;;;;5127159;27;20096;-43
2020/12/24 08:33:52;;;;;;;1.42;1.30;;;11.20;78.40;;;;;;5092562;28;20035;-43
2020/12/24 08:36:23;;;;;;;1.73;1.30;;;11.20;78.40;;;;;;5100114;28;20032;-44
2020/12/24 08:38:50;;;;;;;1.45;1.10;;;11.20;78.40;;;;;;5103548;28;20039;-43
2020/12/24 08:41:23;;;;;;;2.83;1.35;;;11.20;78.40;;;;;;5119011;28;20027;-44
2020/12/24 08:43:51;;;;;;;1.80;1.38;;;11.20;78.40;;;;;;5123873;28;20032;-45
2020/12/24 08:46:17;;;;;;;1.48;1.30;;;11.20;78.40;;;;;;5124269;28;20095;-44
2020/12/24 08:48:43;;;;;;;1.70;1.20;;;11.20;78.40;;;;;;5124836;28;20020;-44
2020/12/24 08:51:14;;;;;;;1.98;1.40;;;11.20;78.40;;;;;;5141946;27;20024;-44
2020/12/24 08:53:40;;;;;;;2.05;1.50;;;11.20;78.60;;;;;;5144475;27;20068;-44
2020/12/24 08:56:16;;;;;;;1.77;1.35;;;11.20;78.50;;;;;;5144708;27;20073;-44
2020/12/24 08:58:49;;;;;;;1.45;1.20;;;11.20;78.40;;;;;;5144739;27;20126;-44
2020/12/24 09:01:16;;;;;;;1.92;1.33;;;11.20;78.20;;;;;;5144642;27;20054;-44
2020/12/24 09:03:43;;;;;;;1.75;1.63;;;11.20;78.40;;;;;;5127912;27;20491;-44
2020/12/24 09:06:16;;;;;;;1.83;1.33;;;11.20;78.30;;;;;;5123979;28;20058;-44
2020/12/24 09:08:49;;;;;;;1.70;1.40;;;11.20;78.70;;;;;;5123016;28;20073;-46
2020/12/24 09:11:25;;;;;;;2.33;1.50;;;11.20;78.50;;;;;;5105538;28;20034;-45
2020/12/24 09:14:04;;;;;;;2.15;1.45;;;11.20;78.40;;;;;;5123412;28;20039;-45
2020/12/24 09:16:31;;;;;;;2.30;1.65;;;11.20;78.40;;;;;;5123866;28;20494;-44
2020/12/24 09:19:08;;;;;;;6.45;1.67;;;11.20;78.30;;;;;;5126265;27;20089;-45
2020/12/24 09:21:34;;;;;;;1.90;1.27;;;11.20;78.40;;;;;;5144012;27;20042;-44
2020/12/24 09:24:07;;;;;;;1.48;1.27;;;11.20;78.60;;;;;;5144013;27;20033;-44
2020/12/24 09:26:46;;;;;;;2.05;1.65;;;11.20;78.60;;;;;;5144198;27;20051;-44
2020/12/24 09:29:13;;;;;;;2.05;1.65;;;11.20;78.70;;;;;;5144256;27;20054;-44
2020/12/24 09:31:39;;;;;;;1.33;1.23;;;11.20;78.50;;;;;;5140795;28;20551;-43
2020/12/24 09:34:06;;;;;;;2.95;1.65;;;11.20;78.80;;;;;;5105871;28;20043;-44
2020/12/24 09:36:32;;;;;;;1.55;1.25;;;11.20;79.00;;;;;;5115882;28;20020;-43
2020/12/24 09:38:59;;;;;;;1.70;1.23;;;11.20;78.90;;;;;;5084766;28;20043;-43
2020/12/24 09:41:25;;;;;;;1.73;1.40;;;11.20;79.20;;;;;;5103343;28;20035;-43
2020/12/24 09:43:51;;;;;;;2.90;1.35;;;11.20;79.00;;;;;;5140536;28;20110;-45
2020/12/24 09:46:17;;;;;;;1.77;1.30;;;11.20;78.80;;;;;;5144036;28;20027;-43
2020/12/24 09:48:43;;;;;;;3.10;1.40;;;11.20;78.80;;;;;;5143543;28;20399;-43
2020/12/24 09:51:09;;;;;;;2.15;1.50;;;11.20;78.90;;;;;;5123092;28;20032;-43
2020/12/24 09:53:35;;;;;;;1.90;1.40;;;11.20;78.80;;;;;;5123010;28;20016;-43
2020/12/24 09:56:02;;;;;;;2.05;1.40;;;11.20;78.80;;;;;;5123356;28;20047;-43
2020/12/24 09:58:28;;;;;;;1.58;1.15;;;11.20;78.80;;;;;;5123168;28;20019;-43
2020/12/24 10:00:54;;;;;;;2.03;1.50;;;11.20;78.80;;;;;;5123336;28;20051;-43
2020/12/24 10:03:20;;;;;;;2.17;1.42;;;11.20;78.80;;;;;;5136069;28;20495;-43
2020/12/24 10:05:46;;;;;;;1.73;1.40;;;11.20;78.80;;;;;;5142820;28;20016;-43
2020/12/24 10:08:13;;;;;;;2.20;1.33;;;11.20;78.80;;;;;;5123207;28;20038;-43
2020/12/24 10:10:39;;;;;;;2.25;1.65;;;11.20;78.80;;;;;;5123425;28;20016;-43
2020/12/24 10:13:05;;;;;;;1.88;1.50;;;11.30;78.80;;;;;;5122895;28;20024;-44
2020/12/24 10:15:31;;;;;;;1.90;1.48;;;11.20;78.70;;;;;;5123234;28;20500;-44
2020/12/24 10:17:57;;;;;;;2.17;1.40;;;11.20;78.70;;;;;;5123069;28;20089;-44
2020/12/24 10:20:23;;;;;;;1.75;1.30;;;11.20;78.70;;;;;;5140952;27;20476;-43
2020/12/24 10:22:49;;;;;;;1.48;1.13;;;11.20;78.70;;;;;;5147223;27;20019;-43
2020/12/24 10:25:15;;;;;;;1.60;1.40;;;11.20;78.70;;;;;;5147655;27;20065;-44
2020/12/24 10:27:42;;;;;;;1.63;1.45;;;11.20;78.70;;;;;;5129143;27;20023;-44
2020/12/24 10:30:08;;;;;;;2.88;1.40;;;11.20;78.70;;;;;;5147260;27;20117;-43
2020/12/24 10:32:36;;;;;;;1.60;1.23;;;11.20;78.80;;;;;;5140678;27;20039;-50
2020/12/24 10:35:02;;;;;;;2.13;1.33;;;11.30;78.80;;;;;;5126452;28;20053;-44
2020/12/24 10:37:30;;;;;;;2.08;1.50;;;11.20;78.80;;;;;;5110926;28;20553;-43
2020/12/24 10:39:56;;;;;;;2.83;1.52;;;11.30;78.90;;;;;;5088286;28;20040;-44
2020/12/24 10:42:22;;;;;;;5.03;1.55;;;11.20;78.80;;;;;;5106243;28;20043;-43
2020/12/24 10:44:48;;;;;;;2.20;1.50;;;11.30;78.80;;;;;;5105889;28;20028;-43
2020/12/24 10:47:14;;;;;;;2.03;1.50;;;11.30;79.60;;;;;;5106130;28;20091;-43
2020/12/24 10:49:41;;;;;;;2.15;1.60;;;11.30;78.80;;;;;;5129354;27;20038;-44
2020/12/24 10:52:13;;;;;;;1.58;1.40;;;11.30;78.90;;;;;;5143215;27;20037;-43
2020/12/24 10:54:39;;;;;;;2.05;1.50;;;11.20;78.80;;;;;;5146546;27;20043;-43
2020/12/24 10:57:05;;;;;;;1.75;1.48;;;11.30;78.80;;;;;;5146964;27;20126;-44
2020/12/24 10:59:31;;;;;;;1.75;1.50;;;11.20;78.80;;;;;;5146697;27;20471;-43
2020/12/24 11:01:58;;;;;;;1.40;1.30;;;11.30;78.80;;;;;;5145242;27;20031;-44
2020/12/24 11:04:24;;;;;;;2.17;1.70;;;11.30;78.80;;;;;;5126214;28;20257;-43
2020/12/24 11:06:50;;;;;;;2.15;1.40;;;11.30;78.90;;;;;;5116143;28;20031;-44
2020/12/24 11:09:16;;;;;;;1.70;1.60;;;11.30;78.80;;;;;;5105712;28;20034;-43
2020/12/24 11:11:42;;;;;;;1.80;1.33;;;11.30;78.80;;;;;;5105640;28;20032;-43
2020/12/24 11:14:09;;;;;;;1.50;1.40;;;11.30;78.80;;;;;;5105141;28;20032;-45
2020/12/24 11:16:35;;;;;;;2.05;1.48;;;11.30;78.80;;;;;;5105632;28;20048;-43
2020/12/24 11:19:01;;;;;;;1.92;1.45;;;11.30;78.90;;;;;;5111743;27;20023;-44
2020/12/24 11:21:30;;;;;;;3.00;1.20;;;11.20;78.80;;;;;;5146285;27;20080;-44
2020/12/24 11:23:57;;;;;;;2.20;1.50;;;11.20;78.90;;;;;;5146273;27;20037;-44
2020/12/24 11:26:23;;;;;;;1.67;1.47;;;11.30;79.30;;;;;;5146645;27;20426;-44
2020/12/24 11:28:50;;;;;;;2.33;1.88;;;11.30;79.00;;;;;;5143127;27;20031;-44
2020/12/24 11:31:29;;;;;;;1.92;1.23;;;11.20;78.90;;;;;;5145488;27;20027;-44
2020/12/24 11:33:55;;;;;;;2.42;1.52;;;11.30;79.30;;;;;;5127695;27;20031;-44
2020/12/24 11:36:22;;;;;;;1.42;1.30;;;11.30;79.30;;;;;;5119395;28;20024;-43
2020/12/24 11:38:48;;;;;;;2.15;1.20;;;11.30;79.30;;;;;;5104999;28;20020;-44
2020/12/24 11:41:15;;;;;;;0.95;0.88;;;11.30;79.50;;;;;;5120405;28;20031;-44
2020/12/24 11:43:42;;;;;;;1.60;1.38;;;11.20;79.30;;;;;;5117643;27;20027;-44
2020/12/24 11:46:10;;;;;;;1.33;1.23;;;11.30;79.40;;;;;;5127800;27;20034;-44
2020/12/24 11:48:36;;;;;;;1.90;1.40;;;11.30;79.30;;;;;;5127809;27;20032;-44
2020/12/24 11:51:06;;;;;;;1.60;1.50;;;11.30;79.20;;;;;;5125471;28;20027;-44
2020/12/24 11:53:32;;;;;;;1.05;1.00;;;11.30;79.10;;;;;;5125048;28;20027;-44
2020/12/24 11:55:58;;;;;;;2.50;1.63;;;11.30;79.20;;;;;;5125179;28;20061;-44
2020/12/24 11:58:25;;;;;;;1.58;1.40;;;11.30;79.30;;;;;;5125266;28;20049;-44
2020/12/24 12:00:51;;;;;;;1.92;1.35;;;11.30;79.30;;;;;;5106967;28;20091;-44
2020/12/24 12:03:17;;;;;;;1.42;1.30;;;11.30;79.30;;;;;;5125008;28;20048;-43
2020/12/24 12:05:43;;;;;;;1.80;1.30;;;11.30;79.20;;;;;;5124126;28;20027;-44
2020/12/24 12:08:09;;;;;;;1.75;1.50;;;11.30;79.30;;;;;;5104456;28;20511;-44
2020/12/24 12:10:35;;;;;;;1.88;1.30;;;11.30;79.60;;;;;;5104597;28;20040;-45
2020/12/24 12:13:02;;;;;;;2.15;1.63;;;11.30;79.30;;;;;;5104576;28;20054;-45
2020/12/24 12:15:28;;;;;;;2.43;1.37;;;11.30;79.20;;;;;;5104041;28;20595;-45
2020/12/24 12:17:54;;;;;;;1.70;1.60;;;11.30;79.20;;;;;;5104373;28;20050;-45
2020/12/24 12:20:20;;;;;;;1.50;1.23;;;11.30;79.30;;;;;;5132986;27;20128;-45
2020/12/24 12:22:48;;;;;;;2.20;1.50;;;11.30;79.30;;;;;;5145295;27;20018;-45
2020/12/24 12:25:15;;;;;;;2.10;1.30;;;11.30;79.20;;;;;;5144929;27;20027;-45
2020/12/24 12:27:44;;;;;;;1.40;1.15;;;11.30;79.20;;;;;;5126763;27;20396;-45
2020/12/24 12:30:10;;;;;;;1.60;1.50;;;11.30;79.30;;;;;;5144960;27;20080;-45
2020/12/24 12:32:36;;;;;;;1.75;1.35;;;11.30;79.40;;;;;;5137978;27;20038;-45
2020/12/24 12:35:03;;;;;;;1.70;1.38;;;11.30;79.30;;;;;;5124219;28;20032;-47
2020/12/24 12:37:29;;;;;;;1.37;1.10;;;11.30;79.40;;;;;;5108728;28;20136;-46
2020/12/24 12:39:55;;;;;;;2.53;1.42;;;11.30;79.50;;;;;;5104076;28;20035;-46
2020/12/24 12:42:21;;;;;;;1.63;1.40;;;11.30;79.60;;;;;;5123468;28;20031;-46
2020/12/24 12:44:48;;;;;;;2.00;1.40;;;11.30;79.40;;;;;;5123883;28;20051;-45
2020/12/24 12:47:14;;;;;;;1.60;1.20;;;11.30;79.40;;;;;;5124518;28;20058;-45
2020/12/24 12:49:40;;;;;;;1.55;1.30;;;11.40;79.50;;;;;;5132945;27;20019;-45
2020/12/24 12:52:06;;;;;;;1.73;1.33;;;11.30;79.60;;;;;;5125333;27;20031;-45